Time;durP1;ratioP1;P1;durP2;ratioP2;P2;SDS_P1;SDS_P2;PMS_P1;PMS_P2;Temp;Humidity;BMP_temperature;BMP_pressure;BME280_temperature;BME280_humidity;BME280_pressure;Samples;Min_cycle;Max_cycle;Signal;HPM_P1;HPM_P2
2021/08/19 00:00:06;;;;;;;21.15;5.30;;;;;;;20.99;55.16;100230.91;5031797;28;20077;-64
2021/08/19 00:02:33;;;;;;;14.07;5.57;;;;;;;20.98;54.90;100229.22;5031542;28;20085;-64
2021/08/19 00:05:00;;;;;;;18.85;5.57;;;;;;;20.97;55.24;100235.28;5034330;28;20472;-64
2021/08/19 00:07:27;;;;;;;18.48;5.18;;;;;;;20.91;55.04;100229.00;5035714;28;20069;-64
2021/08/19 00:09:56;;;;;;;16.85;4.47;;;;;;;20.82;55.12;100211.31;5035294;28;20069;-65
2021/08/19 00:12:24;;;;;;;17.33;4.88;;;;;;;20.85;55.13;100216.25;5036000;28;20065;-64
2021/08/19 00:14:51;;;;;;;19.77;5.90;;;;;;;20.74;55.13;100209.41;5034897;28;20136;-64
2021/08/19 00:17:18;;;;;;;12.20;4.80;;;;;;;20.80;55.40;100219.34;5034798;28;20045;-64
2021/08/19 00:19:45;;;;;;;16.70;5.72;;;;;;;20.67;55.35;100201.50;5034696;28;20087;-65
2021/08/19 00:22:11;;;;;;;24.10;5.60;;;;;;;20.78;55.33;100219.69;5034882;28;20144;-65
2021/08/19 00:24:39;;;;;;;25.55;6.45;;;;;;;20.79;55.54;100215.69;5034834;28;20084;-64
2021/08/19 00:27:05;;;;;;;22.25;4.97;;;;;;;20.76;55.40;100213.56;5035317;28;20454;-64
2021/08/19 00:29:32;;;;;;;16.55;5.18;;;;;;;20.77;55.48;100208.72;5033776;28;20660;-64
2021/08/19 00:32:03;;;;;;;17.17;5.47;;;;;;;20.71;55.56;100198.78;5034493;28;20509;-64
2021/08/19 00:34:29;;;;;;;14.65;4.68;;;;;;;20.63;55.61;100191.25;5033912;28;20140;-64
2021/08/19 00:36:56;;;;;;;15.13;5.05;;;;;;;20.74;55.79;100198.06;5034604;28;20100;-64
2021/08/19 00:39:24;;;;;;;16.50;5.13;;;;;;;20.55;55.67;100173.19;5034479;28;20057;-64
2021/08/19 00:41:51;;;;;;;17.08;5.13;;;;;;;20.56;55.78;100200.34;5034593;28;20081;-65
2021/08/19 00:44:18;;;;;;;13.52;5.93;;;;;;;20.48;55.93;100190.78;5034212;28;20077;-64
2021/08/19 00:46:45;;;;;;;18.63;5.10;;;;;;;20.44;56.16;100195.47;5035068;28;20136;-64
2021/08/19 00:49:13;;;;;;;19.00;5.47;;;;;;;20.38;56.13;100185.56;5034552;28;20069;-64
2021/08/19 00:51:47;;;;;;;13.20;4.68;;;;;;;20.31;56.10;100180.50;5034488;28;20045;-65
2021/08/19 00:54:24;;;;;;;18.17;5.13;;;;;;;20.27;56.08;100178.72;5034296;28;20068;-65
2021/08/19 00:56:56;;;;;;;23.15;5.32;;;;;;;20.32;56.29;100184.97;5023840;28;20136;-65
2021/08/19 00:59:24;;;;;;;18.92;4.97;;;;;;;20.28;56.23;100174.72;5053970;28;20076;-65
2021/08/19 01:01:53;;;;;;;17.98;4.80;;;;;;;20.38;56.34;100179.09;5044069;28;20084;-64
2021/08/19 01:04:21;;;;;;;16.05;5.55;;;;;;;20.34;56.39;100188.31;5034757;28;20519;-64
2021/08/19 01:06:48;;;;;;;12.88;5.15;;;;;;;20.25;56.71;100172.59;5034174;28;20041;-64
2021/08/19 01:09:16;;;;;;;12.90;4.70;;;;;;;20.22;56.81;100159.13;5033720;28;20136;-65
2021/08/19 01:11:44;;;;;;;15.60;4.38;;;;;;;20.21;56.58;100163.16;5034283;28;20107;-64
2021/08/19 01:14:16;;;;;;;12.70;4.78;;;;;;;20.22;56.91;100167.63;5033835;28;20045;-65
2021/08/19 01:16:45;;;;;;;16.88;5.55;;;;;;;20.19;56.97;100166.31;5048488;28;20057;-64
2021/08/19 01:19:16;;;;;;;12.15;4.55;;;;;;;20.21;56.93;100168.81;5053726;28;20136;-64
2021/08/19 01:21:45;;;;;;;13.88;5.18;;;;;;;20.14;56.82;100155.22;5047692;28;20128;-65
2021/08/19 01:24:13;;;;;;;17.08;5.32;;;;;;;20.20;56.85;100173.63;5033705;28;20136;-64
2021/08/19 01:26:40;;;;;;;19.95;5.38;;;;;;;20.15;56.82;100176.72;5034042;28;20073;-65
2021/08/19 01:29:08;;;;;;;14.27;5.15;;;;;;;20.09;57.12;100163.94;5039246;28;20396;-64
2021/08/19 01:31:36;;;;;;;16.10;5.18;;;;;;;20.05;56.99;100172.34;5034206;28;20132;-64
2021/08/19 01:34:03;;;;;;;21.63;5.05;;;;;;;20.06;57.06;100164.66;5033194;28;20077;-64
2021/08/19 01:36:30;;;;;;;16.33;4.43;;;;;;;20.01;57.34;100165.72;5033774;28;20167;-64
2021/08/19 01:38:57;;;;;;;12.32;5.30;;;;;;;19.91;57.06;100160.53;5034157;28;20140;-64
2021/08/19 01:41:24;;;;;;;23.75;5.88;;;;;;;19.99;57.07;100168.09;5033521;28;20081;-64
2021/08/19 01:43:52;;;;;;;21.85;5.22;;;;;;;19.98;57.41;100160.78;5033516;28;20124;-64
2021/08/19 01:46:20;;;;;;;13.77;4.90;;;;;;;19.87;57.55;100149.06;5033456;28;20064;-64
2021/08/19 01:48:49;;;;;;;15.25;4.85;;;;;;;19.76;57.34;100130.03;5033541;28;20545;-64
2021/08/19 01:51:17;;;;;;;13.90;4.80;;;;;;;19.66;57.64;100148.34;5033405;28;20464;-64
2021/08/19 01:53:50;;;;;;;18.35;4.88;;;;;;;19.51;57.86;100141.31;5033775;28;20132;-64
2021/08/19 01:56:22;;;;;;;18.90;5.15;;;;;;;19.36;58.10;100140.00;5033157;28;20152;-65
2021/08/19 01:58:50;;;;;;;17.65;4.63;;;;;;;19.30;58.21;100143.38;5033104;28;20084;-65
2021/08/19 02:01:21;;;;;;;13.68;4.38;;;;;;;19.27;58.25;100139.25;5033027;28;20486;-65
2021/08/19 02:03:49;;;;;;;16.67;5.30;;;;;;;19.29;58.31;100142.56;5033069;28;20137;-65
2021/08/19 02:06:17;;;;;;;16.05;4.90;;;;;;;19.21;58.67;100137.81;5032874;28;20073;-65
2021/08/19 02:08:44;;;;;;;17.10;4.70;;;;;;;19.14;58.91;100121.41;5033176;28;20137;-65
2021/08/19 02:11:11;;;;;;;13.10;3.80;;;;;;;19.23;58.83;100134.63;5036664;28;20041;-65
2021/08/19 02:13:38;;;;;;;15.43;5.32;;;;;;;19.23;58.79;100128.97;5052612;28;20087;-65
2021/08/19 02:16:05;;;;;;;17.67;4.50;;;;;;;19.25;58.95;100129.44;5053042;28;20074;-65
2021/08/19 02:18:32;;;;;;;14.77;4.28;;;;;;;19.16;58.98;100110.56;5051733;28;20126;-65
2021/08/19 02:20:59;;;;;;;9.20;4.32;;;;;;;19.13;58.81;100114.09;5052873;28;20131;-65
2021/08/19 02:23:26;;;;;;;11.40;4.55;;;;;;;19.16;58.70;100104.91;5052558;28;20132;-65
2021/08/19 02:25:53;;;;;;;18.98;4.85;;;;;;;19.28;58.90;100117.41;5045924;28;20085;-65
2021/08/19 02:28:19;;;;;;;13.52;4.40;;;;;;;19.29;58.91;100110.59;5032702;28;20133;-65
2021/08/19 02:30:46;;;;;;;15.27;5.40;;;;;;;19.24;58.94;100107.97;5050628;28;20544;-65
2021/08/19 02:33:13;;;;;;;18.73;5.97;;;;;;;18.99;58.88;100059.81;5052469;28;20041;-65
2021/08/19 02:35:40;;;;;;;16.15;5.57;;;;;;;19.28;58.63;100103.25;5047555;28;20069;-65
2021/08/19 02:38:07;;;;;;;14.55;4.85;;;;;;;19.39;58.88;100119.47;5032419;28;20493;-65
2021/08/19 02:40:40;;;;;;;15.48;5.03;;;;;;;19.37;59.06;100113.31;5032463;28;20082;-65
2021/08/19 02:43:08;;;;;;;14.70;5.82;;;;;;;19.43;58.76;100122.44;5032384;28;20519;-65
2021/08/19 02:45:35;;;;;;;15.20;5.32;;;;;;;19.32;58.65;100112.75;5032969;28;20087;-65
2021/08/19 02:48:03;;;;;;;24.98;5.40;;;;;;;19.33;58.89;100112.38;5032120;28;20124;-65
2021/08/19 02:50:29;;;;;;;18.50;5.43;;;;;;;19.36;58.76;100122.19;5032228;28;20049;-64
2021/08/19 02:52:57;;;;;;;15.77;4.80;;;;;;;19.38;58.82;100139.63;5031283;28;20046;-65
2021/08/19 02:55:24;;;;;;;19.63;5.65;;;;;;;19.25;58.77;100121.81;5032250;28;20124;-65
2021/08/19 02:57:52;;;;;;;12.35;4.72;;;;;;;19.20;58.78;100124.00;5044011;28;20140;-65
2021/08/19 03:00:18;;;;;;;15.77;4.55;;;;;;;19.15;58.98;100128.72;5051973;28;20135;-65
2021/08/19 03:02:45;;;;;;;15.68;4.97;;;;;;;19.13;58.93;100131.06;5051311;28;20041;-65
2021/08/19 03:05:12;;;;;;;19.45;5.07;;;;;;;18.98;59.18;100116.75;5051887;28;20044;-65
2021/08/19 03:07:39;;;;;;;17.15;5.35;;;;;;;19.07;59.47;100142.94;5050752;28;20081;-65
2021/08/19 03:10:07;;;;;;;18.52;5.53;;;;;;;18.96;59.25;100124.75;5052111;28;20079;-66
2021/08/19 03:12:34;;;;;;;21.83;6.95;;;;;;;18.92;59.56;100131.09;5052117;28;20132;-65
2021/08/19 03:15:01;;;;;;;17.38;5.75;;;;;;;18.95;59.63;100135.25;5032276;28;20382;-65
2021/08/19 03:17:29;;;;;;;13.57;5.07;;;;;;;18.95;59.59;100135.25;5032071;28;20132;-65
2021/08/19 03:19:56;;;;;;;18.00;5.68;;;;;;;18.82;59.47;100123.03;5031770;28;20046;-65
2021/08/19 03:22:23;;;;;;;16.15;4.88;;;;;;;18.92;59.64;100141.59;5032160;28;20141;-65
2021/08/19 03:24:49;;;;;;;17.67;5.95;;;;;;;18.90;59.69;100143.94;5031994;28;20522;-65
2021/08/19 03:27:16;;;;;;;17.55;5.03;;;;;;;18.69;59.93;100107.97;5031982;28;20124;-65
2021/08/19 03:29:43;;;;;;;17.23;5.65;;;;;;;18.88;60.03;100141.47;5031927;28;20132;-65
2021/08/19 03:32:10;;;;;;;21.27;5.25;;;;;;;18.82;59.99;100139.19;5031922;28;20191;-65
2021/08/19 03:34:37;;;;;;;14.15;5.32;;;;;;;18.82;60.15;100145.69;5031715;28;20050;-65
2021/08/19 03:37:06;;;;;;;20.92;6.03;;;;;;;18.76;60.39;100127.25;5032435;28;20049;-66
2021/08/19 03:39:35;;;;;;;15.20;4.95;;;;;;;18.80;60.16;100145.19;5034199;28;20045;-65
2021/08/19 03:42:03;;;;;;;15.43;4.68;;;;;;;18.76;60.22;100132.91;5036121;28;20508;-64
2021/08/19 03:44:30;;;;;;;20.83;6.00;;;;;;;18.77;59.99;100145.03;5035679;28;20073;-66
2021/08/19 03:46:58;;;;;;;18.15;6.63;;;;;;;18.73;60.14;100149.75;5035618;28;20132;-66
2021/08/19 03:49:25;;;;;;;16.00;5.18;;;;;;;18.63;60.08;100151.81;5036550;28;20137;-65
2021/08/19 03:51:52;;;;;;;17.02;5.88;;;;;;;18.63;60.34;100151.81;5036065;28;20049;-65
2021/08/19 03:54:19;;;;;;;18.98;5.70;;;;;;;18.57;60.33;100150.34;5036050;28;20076;-65
2021/08/19 03:56:46;;;;;;;24.00;5.32;;;;;;;18.59;60.49;100150.81;5040248;28;20073;-65
2021/08/19 03:59:14;;;;;;;14.15;5.20;;;;;;;18.58;60.50;100152.00;5055070;28;20589;-65
2021/08/19 04:01:41;;;;;;;22.55;7.63;;;;;;;18.55;60.64;100152.69;5053886;28;20049;-65
2021/08/19 04:04:09;;;;;;;15.70;6.78;;;;;;;18.55;60.39;100149.84;5055394;28;20049;-65
2021/08/19 04:06:35;;;;;;;22.77;5.88;;;;;;;18.52;60.39;100144.06;5055443;28;20072;-65
2021/08/19 04:09:02;;;;;;;16.88;5.50;;;;;;;18.52;61.06;100130.75;5048972;28;20116;-65
2021/08/19 04:11:29;;;;;;;18.33;5.10;;;;;;;18.44;61.21;100114.69;5035696;28;20247;-65
2021/08/19 04:13:56;;;;;;;18.95;5.70;;;;;;;18.52;61.13;100139.22;5034946;28;20088;-65
2021/08/19 04:16:23;;;;;;;21.63;5.57;;;;;;;18.52;61.19;100127.91;5035189;28;20120;-65
2021/08/19 04:18:50;;;;;;;21.45;6.63;;;;;;;18.53;61.09;100134.41;5034969;28;20053;-65
2021/08/19 04:21:17;;;;;;;17.55;7.05;;;;;;;18.49;61.10;100122.94;5034874;28;20128;-65
2021/08/19 04:23:45;;;;;;;18.00;5.72;;;;;;;18.36;60.98;100095.78;5034845;28;20054;-65
2021/08/19 04:26:12;;;;;;;19.67;5.40;;;;;;;18.49;60.88;100117.28;5034853;28;20073;-65
2021/08/19 04:28:39;;;;;;;15.15;5.15;;;;;;;18.57;61.28;100126.91;5035101;28;20054;-65
2021/08/19 04:31:06;;;;;;;23.77;6.43;;;;;;;18.59;60.99;100122.53;5033953;28;20081;-65
2021/08/19 04:33:33;;;;;;;12.75;5.13;;;;;;;18.52;61.08;100119.44;5034668;28;20060;-65
2021/08/19 04:36:00;;;;;;;17.95;5.80;;;;;;;18.58;61.27;100128.56;5034655;28;20081;-65
2021/08/19 04:38:27;;;;;;;16.08;5.25;;;;;;;18.61;61.34;100137.16;5046343;28;20526;-65
2021/08/19 04:40:54;;;;;;;22.00;5.57;;;;;;;18.35;60.84;100123.22;5054381;28;20124;-65
2021/08/19 04:43:21;;;;;;;17.33;5.55;;;;;;;18.56;60.94;100157.16;5054473;28;20083;-65
2021/08/19 04:45:48;;;;;;;19.80;5.55;;;;;;;18.48;61.27;100141.91;5052502;28;20120;-65
2021/08/19 04:48:15;;;;;;;17.35;6.85;;;;;;;18.46;61.12;100157.56;5054356;28;20045;-65
2021/08/19 04:50:42;;;;;;;20.98;6.10;;;;;;;18.41;61.49;100157.78;5041530;28;20216;-65
2021/08/19 04:53:09;;;;;;;16.25;5.60;;;;;;;18.34;61.32;100147.00;5034195;28;20045;-65
2021/08/19 04:55:36;;;;;;;13.20;6.25;;;;;;;18.33;61.94;100153.03;5034420;28;20120;-65
2021/08/19 04:58:03;;;;;;;17.67;6.25;;;;;;;18.30;61.66;100165.00;5052284;28;20130;-65
2021/08/19 05:00:30;;;;;;;28.58;7.32;;;;;;;18.28;61.58;100167.34;5054261;28;20465;-65
2021/08/19 05:02:57;;;;;;;20.77;6.10;;;;;;;18.16;61.89;100146.31;5034892;28;20077;-65
2021/08/19 05:05:25;;;;;;;21.05;6.32;;;;;;;18.26;61.86;100158.38;5034070;28;20056;-65
2021/08/19 05:07:52;;;;;;;19.08;7.00;;;;;;;18.12;61.97;100134.03;5033982;28;20524;-65
2021/08/19 05:10:19;;;;;;;17.65;6.47;;;;;;;18.17;61.95;100144.28;5034029;28;20128;-65
2021/08/19 05:12:45;;;;;;;21.30;6.65;;;;;;;18.23;61.89;100157.88;5033881;28;20493;-65
2021/08/19 05:15:12;;;;;;;18.77;6.63;;;;;;;18.14;61.99;100151.44;5049168;28;20128;-65
2021/08/19 05:17:39;;;;;;;14.95;6.47;;;;;;;18.15;62.28;100150.31;5034183;28;20053;-65
2021/08/19 05:20:07;;;;;;;23.77;7.50;;;;;;;18.11;62.19;100135.19;5033923;28;20091;-63
2021/08/19 05:22:34;;;;;;;26.92;7.57;;;;;;;18.17;62.08;100155.59;5032544;28;20541;-63
2021/08/19 05:25:00;;;;;;;21.75;7.20;;;;;;;18.15;62.45;100152.28;5033665;28;20133;-64
2021/08/19 05:27:27;;;;;;;22.00;8.40;;;;;;;18.13;62.03;100144.16;5033455;28;20077;-64
2021/08/19 05:29:54;;;;;;;21.90;8.10;;;;;;;18.07;62.44;100142.69;5032224;28;20152;-64
2021/08/19 05:32:21;;;;;;;15.95;6.63;;;;;;;18.13;62.37;100161.09;5033895;28;20076;-64
2021/08/19 05:34:48;;;;;;;21.05;7.07;;;;;;;17.87;62.33;100116.03;5034238;28;20121;-64
2021/08/19 05:37:15;;;;;;;22.05;7.32;;;;;;;18.06;62.50;100148.69;5053297;28;20132;-64
2021/08/19 05:39:41;;;;;;;20.05;6.80;;;;;;;18.14;62.77;100159.94;5045474;28;20133;-64
2021/08/19 05:42:08;;;;;;;18.77;6.10;;;;;;;18.10;62.35;100173.09;5033317;28;20136;-64
2021/08/19 05:44:36;;;;;;;21.27;7.55;;;;;;;18.07;62.57;100167.28;5033415;28;20128;-64
2021/08/19 05:47:06;;;;;;;24.92;8.23;;;;;;;17.97;62.54;100154.38;5033278;28;20477;-64
2021/08/19 05:49:41;;;;;;;24.05;8.90;;;;;;;18.04;62.70;100151.84;5033239;28;20133;-64
2021/08/19 05:52:08;;;;;;;27.63;9.27;;;;;;;17.99;62.66;100144.41;5040124;28;20319;-64
2021/08/19 05:54:35;;;;;;;29.80;9.18;;;;;;;18.07;62.57;100170.13;5053218;28;20124;-64
2021/08/19 05:57:02;;;;;;;27.67;8.80;;;;;;;18.09;62.52;100162.16;5051680;28;20080;-64
2021/08/19 05:59:29;;;;;;;26.75;7.70;;;;;;;18.13;62.81;100161.09;5052921;28;20045;-64
2021/08/19 06:01:56;;;;;;;26.48;8.75;;;;;;;18.13;62.42;100146.97;5035745;28;20135;-64
2021/08/19 06:04:23;;;;;;;21.73;7.63;;;;;;;18.15;62.49;100161.59;5031826;28;20073;-64
2021/08/19 06:06:50;;;;;;;26.40;8.15;;;;;;;18.13;62.90;100154.63;5032893;28;20132;-64
2021/08/19 06:09:16;;;;;;;26.17;8.70;;;;;;;18.08;62.81;100152.81;5033496;28;20085;-64
2021/08/19 06:11:43;;;;;;;28.48;7.20;;;;;;;18.09;63.12;100157.31;5032858;28;20516;-64
2021/08/19 06:14:10;;;;;;;21.95;8.25;;;;;;;18.04;63.05;100149.00;5032388;28;20493;-64
2021/08/19 06:16:37;;;;;;;27.02;8.93;;;;;;;17.98;62.96;100134.28;5048473;28;20124;-64
2021/08/19 06:19:04;;;;;;;30.67;8.20;;;;;;;18.10;63.08;100147.66;5033029;28;20064;-64
2021/08/19 06:21:31;;;;;;;23.02;7.40;;;;;;;18.21;62.80;100165.03;5031570;28;20084;-64
2021/08/19 06:23:57;;;;;;;26.35;7.95;;;;;;;18.26;62.75;100158.38;5030308;28;20464;-64
2021/08/19 06:26:26;;;;;;;15.52;6.50;;;;;;;18.30;62.53;100154.53;5037658;28;20064;-64
2021/08/19 06:28:53;;;;;;;18.95;6.68;;;;;;;18.32;63.08;100157.00;5033429;28;20485;-64
2021/08/19 06:31:19;;;;;;;33.35;8.40;;;;;;;18.38;62.95;100164.13;5032604;28;20241;-64
2021/08/19 06:33:46;;;;;;;23.15;7.75;;;;;;;18.40;63.06;100139.16;5031413;28;20111;-63
2021/08/19 06:36:13;;;;;;;19.17;7.20;;;;;;;18.38;62.72;100118.88;5032635;28;20121;-63
2021/08/19 06:38:40;;;;;;;22.92;8.32;;;;;;;18.64;63.10;100147.78;5032799;28;20088;-63
2021/08/19 06:41:07;;;;;;;16.00;7.30;;;;;;;18.76;63.07;100147.06;5032432;28;20154;-63
2021/08/19 06:43:34;;;;;;;27.10;7.78;;;;;;;18.94;62.65;100144.91;5032879;28;20084;-63
2021/08/19 06:46:01;;;;;;;22.15;7.93;;;;;;;18.78;62.19;100090.16;5032677;28;20077;-63
2021/08/19 06:48:27;;;;;;;21.98;7.32;;;;;;;19.15;62.26;100151.38;5032309;28;20045;-63
2021/08/19 06:50:55;;;;;;;25.40;10.30;;;;;;;19.33;61.87;100162.50;5032321;28;20501;-62
2021/08/19 06:53:22;;;;;;;21.10;8.40;;;;;;;19.42;61.91;100160.44;5032254;28;20120;-62
2021/08/19 06:55:49;;;;;;;26.02;8.02;;;;;;;19.53;61.34;100157.97;5035504;28;20116;-63
2021/08/19 06:58:16;;;;;;;30.92;8.25;;;;;;;19.65;61.08;100150.34;5052039;28;20441;-63
2021/08/19 07:00:43;;;;;;;19.60;7.90;;;;;;;19.86;60.96;100157.91;5043110;28;20053;-63
2021/08/19 07:03:15;;;;;;;19.33;6.38;;;;;;;20.08;60.39;100167.97;5031237;28;20174;-64
2021/08/19 07:05:43;;;;;;;20.38;7.88;;;;;;;20.15;60.21;100167.38;5032555;28;20132;-65
2021/08/19 07:08:11;;;;;;;20.08;8.02;;;;;;;20.25;59.99;100170.56;5032178;28;20092;-65
2021/08/19 07:10:39;;;;;;;18.73;7.40;;;;;;;20.41;59.48;100184.00;5045664;28;20077;-64
2021/08/19 07:13:06;;;;;;;16.58;6.88;;;;;;;20.39;59.20;100181.56;5053304;28;20088;-65
2021/08/19 07:15:33;;;;;;;26.58;7.65;;;;;;;20.63;59.13;100192.06;5056143;28;20469;-65
2021/08/19 07:18:00;;;;;;;21.05;7.95;;;;;;;20.78;58.72;100190.50;5044611;28;20050;-64
2021/08/19 07:20:28;;;;;;;20.38;7.05;;;;;;;21.01;58.57;100185.94;5036315;28;20132;-65
2021/08/19 07:22:55;;;;;;;23.58;7.57;;;;;;;21.08;58.56;100167.47;5036033;28;20100;-64
2021/08/19 07:25:22;;;;;;;23.85;7.40;;;;;;;21.39;58.01;100189.47;5035817;28;20111;-65
2021/08/19 07:27:49;;;;;;;20.17;8.27;;;;;;;21.49;57.63;100172.72;5035791;28;20049;-65
2021/08/19 07:30:18;;;;;;;29.63;9.07;;;;;;;21.82;57.29;100167.94;5036181;28;20050;-65
2021/08/19 07:32:45;;;;;;;30.55;10.43;;;;;;;21.93;56.77;100158.47;5035929;28;20175;-65
2021/08/19 07:35:12;;;;;;;22.67;8.85;;;;;;;22.22;56.43;100173.44;5042119;28;20084;-65
2021/08/19 07:37:53;;;;;;;25.95;10.32;;;;;;;22.41;55.67;100167.00;5035839;28;20046;-65
2021/08/19 07:40:24;;;;;;;21.27;8.55;;;;;;;22.40;55.10;100134.88;5035667;28;20103;-64
2021/08/19 07:42:51;;;;;;;24.10;8.20;;;;;;;22.68;54.61;100173.72;5035668;28;20475;-64
2021/08/19 07:45:20;;;;;;;24.50;9.35;;;;;;;22.88;54.39;100192.47;5034789;28;20045;-65
2021/08/19 07:47:47;;;;;;;22.70;8.75;;;;;;;23.01;54.38;100201.75;5035812;28;20081;-65
2021/08/19 07:50:15;;;;;;;26.38;8.48;;;;;;;23.20;53.92;100202.94;5035680;28;20466;-64
2021/08/19 07:52:42;;;;;;;19.48;7.65;;;;;;;23.37;53.89;100200.44;5036072;28;20045;-65
2021/08/19 07:55:11;;;;;;;26.63;7.97;;;;;;;23.57;53.39;100194.75;5035751;28;20133;-64
2021/08/19 07:57:49;;;;;;;23.38;7.95;;;;;;;23.64;53.12;100174.91;5034032;28;20604;-64
2021/08/19 08:00:22;;;;;;;22.25;8.32;;;;;;;23.85;52.67;100183.06;5035400;28;20050;-63
2021/08/19 08:02:51;;;;;;;21.63;8.02;;;;;;;24.01;51.85;100194.38;5035529;28;20454;-63
2021/08/19 08:05:19;;;;;;;;;;;;;;;23.98;53.36;100183.72;5042106;28;20137;-63
2021/08/19 08:07:46;;;;;;;23.02;7.95;;;;;;;24.26;51.70;100191.94;5035929;28;20326;-63
2021/08/19 08:10:14;;;;;;;22.00;8.40;;;;;;;24.42;50.82;100174.69;5035361;28;20125;-63
2021/08/19 08:12:40;;;;;;;22.73;8.38;;;;;;;24.52;51.10;100191.16;5047106;28;20131;-63
2021/08/19 08:15:08;;;;;;;23.40;8.93;;;;;;;24.85;50.51;100195.31;5040496;28;20081;-63
2021/08/19 08:17:37;;;;;;;21.98;8.57;;;;;;;25.02;49.89;100180.44;5034999;28;20085;-64
2021/08/19 08:20:06;;;;;;;18.58;8.52;;;;;;;25.09;49.79;100176.84;5035315;28;20124;-64
2021/08/19 08:22:33;;;;;;;29.10;10.00;;;;;;;25.27;49.66;100197.97;5035133;28;20132;-64
2021/08/19 08:24:59;;;;;;;25.95;9.20;;;;;;;25.31;49.26;100189.44;5048743;28;20132;-63
2021/08/19 08:27:26;;;;;;;25.27;10.05;;;;;;;25.35;49.10;100179.69;5034683;28;20042;-63
2021/08/19 08:29:54;;;;;;;31.13;9.70;;;;;;;25.51;48.43;100199.47;5034641;28;20533;-63
2021/08/19 08:32:21;;;;;;;19.98;9.68;;;;;;;25.48;48.17;100161.03;5035028;28;20076;-64
2021/08/19 08:34:48;;;;;;;30.10;9.45;;;;;;;26.00;47.59;100212.69;5034547;28;20041;-64
2021/08/19 08:37:15;;;;;;;24.27;9.93;;;;;;;26.10;47.35;100200.50;5034716;28;20096;-65
2021/08/19 08:39:44;;;;;;;23.67;11.05;;;;;;;26.27;46.98;100219.06;5034743;28;20069;-65
2021/08/19 08:42:11;;;;;;;21.63;10.32;;;;;;;26.41;46.91;100202.00;5034892;28;20136;-64
2021/08/19 08:44:39;;;;;;;24.98;9.13;;;;;;;26.50;46.44;100201.69;5034343;28;20099;-64
2021/08/19 08:47:07;;;;;;;19.20;9.02;;;;;;;26.49;45.97;100197.19;5034820;28;20156;-65
2021/08/19 08:49:34;;;;;;;20.65;9.02;;;;;;;26.78;45.78;100200.25;5034662;28;20123;-65
2021/08/19 08:52:03;;;;;;;23.67;9.57;;;;;;;26.96;45.11;100188.88;5034418;28;20049;-64
2021/08/19 08:54:31;;;;;;;21.20;8.75;;;;;;;27.21;44.98;100203.38;5032951;28;20085;-63
2021/08/19 08:56:59;;;;;;;25.27;8.85;;;;;;;27.42;44.55;100197.75;5042359;28;20140;-64
2021/08/19 08:59:27;;;;;;;19.85;8.38;;;;;;;27.64;44.26;100201.47;5053270;28;20091;-65
2021/08/19 09:01:55;;;;;;;21.55;8.88;;;;;;;27.68;43.93;100182.22;5054227;28;20136;-64
2021/08/19 09:04:23;;;;;;;22.25;8.43;;;;;;;28.08;43.43;100206.13;5035881;28;20116;-63
2021/08/19 09:06:50;;;;;;;20.08;9.05;;;;;;;28.20;42.70;100190.53;5034293;28;20119;-63
2021/08/19 09:09:25;;;;;;;21.23;8.25;;;;;;;28.29;42.54;100188.88;5033746;28;20050;-64
2021/08/19 09:11:55;;;;;;;25.65;8.82;;;;;;;28.27;42.45;100196.25;5039209;28;20053;-64
2021/08/19 09:14:25;;;;;;;17.30;7.72;;;;;;;28.22;42.16;100186.03;5053653;28;20124;-65
2021/08/19 09:16:55;;;;;;;16.73;9.13;;;;;;;28.36;42.01;100205.28;5035549;28;20045;-65
2021/08/19 09:19:28;;;;;;;19.10;8.80;;;;;;;28.43;41.35;100196.72;5033512;28;20077;-65
2021/08/19 09:22:01;;;;;;;15.63;7.78;;;;;;;28.45;41.71;100202.88;5034012;28;20466;-65
2021/08/19 09:24:32;;;;;;;22.77;9.57;;;;;;;28.65;41.36;100205.28;5033979;28;20173;-65
2021/08/19 09:27:16;;;;;;;17.33;8.05;;;;;;;28.63;41.43;100181.91;5033875;28;20430;-64
2021/08/19 09:29:49;;;;;;;12.98;7.80;;;;;;;28.83;40.77;100188.03;5033563;28;20438;-64
2021/08/19 09:32:20;;;;;;;16.58;8.77;;;;;;;29.21;40.26;100204.38;5033408;28;20049;-64
2021/08/19 09:34:48;;;;;;;18.38;8.45;;;;;;;29.33;40.20;100185.81;5033879;28;20133;-64
2021/08/19 09:37:18;;;;;;;19.23;8.45;;;;;;;29.62;39.44;100182.84;5032531;28;20081;-65
2021/08/19 09:39:48;;;;;;;18.30;8.23;;;;;;;29.87;38.90;100194.19;5033431;28;20096;-64
2021/08/19 09:42:15;;;;;;;18.95;7.93;;;;;;;29.94;38.60;100203.59;5033301;28;20125;-64
2021/08/19 09:44:45;;;;;;;16.60;8.43;;;;;;;30.11;38.95;100187.44;5041719;28;20049;-64
2021/08/19 09:47:32;;;;;;;13.50;7.57;;;;;;;30.12;39.00;100205.53;5051948;28;20139;-64
2021/08/19 09:50:15;;;;;;;13.55;7.20;;;;;;;30.37;38.56;100203.31;5052444;28;20417;-64
2021/08/19 09:52:45;;;;;;;15.57;7.00;;;;;;;30.55;37.85;100196.56;5052997;28;20055;-64
2021/08/19 09:55:22;;;;;;;;;;;;;;;30.18;39.58;100206.75;5038866;28;20080;-65
2021/08/19 09:57:49;;;;;;;23.40;7.38;;;;;;;30.51;37.86;100204.44;5043603;28;19931;-64
2021/08/19 10:00:41;;;;;;;13.65;6.53;;;;;;;30.67;38.01;100207.56;5053286;28;20128;-64
2021/08/19 10:03:10;;;;;;;17.02;7.35;;;;;;;30.89;36.92;100196.66;5044439;28;20206;-63
2021/08/19 10:05:38;;;;;;;12.00;6.85;;;;;;;31.21;35.96;100199.16;5032915;28;20049;-63
2021/08/19 10:08:08;;;;;;;15.07;7.65;;;;;;;31.67;35.32;100209.31;5039854;28;20045;-63
2021/08/19 10:10:36;;;;;;;13.75;6.28;;;;;;;31.86;35.19;100196.25;5033205;28;20115;-63
2021/08/19 10:13:04;;;;;;;14.80;6.43;;;;;;;31.99;34.86;100182.88;5032334;28;20053;-63
2021/08/19 10:15:35;;;;;;;11.82;5.32;;;;;;;32.48;34.59;100199.84;5032859;28;20354;-63
2021/08/19 10:18:05;;;;;;;15.20;5.22;;;;;;;32.84;33.94;100194.25;5032616;28;20493;-64
2021/08/19 10:20:41;;;;;;;10.90;5.28;;;;;;;32.90;32.99;100174.31;5032790;28;20391;-64
2021/08/19 10:23:12;;;;;;;10.82;5.15;;;;;;;33.16;32.90;100195.69;5033267;28;20116;-63
2021/08/19 10:25:39;;;;;;;13.82;6.57;;;;;;;33.30;32.58;100197.47;5033572;28;20128;-64
2021/08/19 10:28:15;;;;;;;12.35;6.55;;;;;;;33.33;32.60;100196.59;5036225;28;20080;-64
2021/08/19 10:30:51;;;;;;;12.38;5.45;;;;;;;33.46;32.50;100203.34;5049431;28;20045;-65
2021/08/19 10:33:38;;;;;;;13.57;6.50;;;;;;;33.23;32.71;100186.88;5052408;28;20132;-64
2021/08/19 10:36:11;;;;;;;11.52;5.63;;;;;;;33.51;31.99;100199.97;5039269;28;20124;-63
2021/08/19 10:38:39;;;;;;;14.90;5.95;;;;;;;33.53;31.95;100191.63;5032582;28;20444;-63
2021/08/19 10:41:32;;;;;;;13.00;5.80;;;;;;;33.53;31.92;100197.44;5033249;28;20041;-62
2021/08/19 10:44:10;;;;;;;12.60;5.40;;;;;;;33.59;31.58;100195.63;5034000;28;20056;-63
2021/08/19 10:46:38;;;;;;;16.10;6.00;;;;;;;33.48;31.72;100187.19;5032612;28;20112;-62
2021/08/19 10:49:06;;;;;;;22.17;6.03;;;;;;;33.40;31.55;100199.34;5031913;28;20124;-64
2021/08/19 10:51:33;;;;;;;11.40;5.53;;;;;;;33.63;31.32;100207.94;5032213;28;20045;-64
2021/08/19 10:54:00;;;;;;;11.40;5.40;;;;;;;33.85;31.20;100207.50;5032062;28;20128;-63
2021/08/19 10:56:45;;;;;;;12.57;6.45;;;;;;;34.03;31.07;100201.28;5031914;28;20695;-63
2021/08/19 10:59:54;;;;;;;12.48;5.10;;;;;;;34.59;30.16;100204.84;5032777;28;20056;-63
2021/08/19 11:02:47;;;;;;;10.05;5.32;;;;;;;35.07;29.66;100211.84;5021437;28;20052;-63
2021/08/19 11:05:36;;;;;;;14.02;5.45;;;;;;;35.78;28.64;100211.84;5032157;28;20052;-63
2021/08/19 11:08:04;;;;;;;11.70;5.45;;;;;;;35.86;28.06;100217.44;5032030;28;20045;-63
2021/08/19 11:10:36;;;;;;;13.68;6.97;;;;;;;35.10;28.37;100208.03;5032217;28;20151;-63
2021/08/19 11:13:11;;;;;;;16.30;5.78;;;;;;;34.57;29.19;100197.91;5047086;28;20099;-63
2021/08/19 11:15:47;;;;;;;9.70;5.32;;;;;;;34.26;29.27;100192.44;5050991;28;20071;-64
2021/08/19 11:18:26;;;;;;;10.73;5.20;;;;;;;33.84;30.06;100200.03;5039910;28;20103;-64
2021/08/19 11:20:54;;;;;;;12.77;6.03;;;;;;;33.53;29.96;100196.63;5031900;28;20068;-64
2021/08/19 11:23:37;;;;;;;12.52;6.30;;;;;;;33.30;30.49;100203.28;5032076;28;20053;-64